createdAt,value
2023-11-19T00:06:39.357Z,10.00
2023-11-19T00:16:42.288Z,10.23
2023-11-19T00:26:47.146Z,10.64
2023-11-19T00:36:51.067Z,11.84
2023-11-19T00:47:00.945Z,10.69
2023-11-19T00:57:04.824Z,10.68
2023-11-19T01:07:13.623Z,10.86
2023-11-19T01:17:17.390Z,10.92
2023-11-19T01:27:22.746Z,10.90
2023-11-19T01:37:25.655Z,11.17
2023-11-19T01:47:30.805Z,11.22
2023-11-19T01:57:33.782Z,11.38
2023-11-19T02:07:37.970Z,11.61
2023-11-19T02:17:40.954Z,11.61
2023-11-19T02:27:50.632Z,11.78
2023-11-19T02:37:53.434Z,11.93
2023-11-19T02:47:57.613Z,11.96
2023-11-19T02:58:01.233Z,12.02
2023-11-19T03:08:05.746Z,12.02
2023-11-19T03:18:08.595Z,12.21
2023-11-19T03:28:13.301Z,12.24
2023-11-19T03:38:16.616Z,12.12
2023-11-19T03:48:20.944Z,12.23
2023-11-19T03:58:23.775Z,12.24
2023-11-19T04:08:27.939Z,12.19
2023-11-19T04:18:30.868Z,12.18
2023-11-19T04:28:35.332Z,12.40
2023-11-19T04:38:39.540Z,12.74
2023-11-19T04:48:43.693Z,12.39
2023-11-19T04:58:46.480Z,12.44
2023-11-19T05:08:50.623Z,12.29
2023-11-19T05:18:53.396Z,12.26
2023-11-19T05:28:57.564Z,12.44
2023-11-19T05:39:00.466Z,12.34
2023-11-19T05:49:05.594Z,12.38
2023-11-19T05:59:15.894Z,12.07
2023-11-19T06:09:20.520Z,12.08
2023-11-19T06:19:27.264Z,11.92
2023-11-19T06:29:32.662Z,11.80
2023-11-19T06:39:36.402Z,11.42
2023-11-19T06:49:40.539Z,11.38
2023-11-19T06:59:44.006Z,11.25
2023-11-19T07:09:48.996Z,11.00
2023-11-19T07:19:52.117Z,11.02
2023-11-19T07:29:56.365Z,10.88
2023-11-19T07:39:59.223Z,11.01
2023-11-19T07:50:03.652Z,10.92
2023-11-19T08:00:08.247Z,11.02
2023-11-19T08:10:17.096Z,11.23
2023-11-19T08:20:19.940Z,11.46
2023-11-19T08:30:24.134Z,12.00
2023-11-19T08:40:27.208Z,12.03
2023-11-19T08:50:31.436Z,12.41
2023-11-19T09:00:34.371Z,12.34
2023-11-19T09:10:38.499Z,12.36
2023-11-19T09:20:41.333Z,12.38
2023-11-19T09:30:45.663Z,12.32
2023-11-19T09:40:48.747Z,12.43
2023-11-19T09:50:54.137Z,12.46
2023-11-19T10:01:23.527Z,12.59
2023-11-19T10:11:23.528Z,12.63
2023-11-19T10:21:28.786Z,13.04
2023-11-19T10:31:33.032Z,13.44
2023-11-19T10:41:36.064Z,13.21
2023-11-19T10:51:45.778Z,13.32
2023-11-19T11:01:50.487Z,13.10
2023-11-19T11:11:54.900Z,13.11
2023-11-19T11:21:58.595Z,12.95
2023-11-19T11:32:11.148Z,13.40
2023-11-19T11:42:33.592Z,13.70
2023-11-19T11:53:16.305Z,13.76
2023-11-19T12:03:22.768Z,13.12
2023-11-19T12:13:32.089Z,13.88
2023-11-19T12:23:35.212Z,13.64
2023-11-19T12:33:39.902Z,13.78
2023-11-19T12:53:54.010Z,13.11
2023-11-19T13:03:56.839Z,12.88
2023-11-19T13:14:04.146Z,13.05
2023-11-19T13:24:07.560Z,13.32
2023-11-19T13:34:11.897Z,13.23
2023-11-19T13:44:14.832Z,12.98
2023-11-19T13:54:20.653Z,13.11
2023-11-19T14:04:23.674Z,12.57
2023-11-19T14:14:27.908Z,12.70
2023-11-19T14:24:30.821Z,12.62
2023-11-19T14:34:35.030Z,11.86
2023-11-19T14:44:37.892Z,11.02
2023-11-19T14:54:42.320Z,11.12
2023-11-19T15:04:46.580Z,11.43
2023-11-19T15:14:50.874Z,11.56
2023-11-19T15:24:53.871Z,11.40
2023-11-19T15:34:58.128Z,11.06
2023-11-19T15:45:00.997Z,11.06
2023-11-19T15:55:05.801Z,10.90
2023-11-19T16:05:12.051Z,11.12
2023-11-19T16:15:36.598Z,11.27
2023-11-19T16:25:40.277Z,11.20
2023-11-19T16:35:44.540Z,11.01
2023-11-19T16:45:47.505Z,10.79
2023-11-19T16:55:51.749Z,10.84
2023-11-19T17:05:54.859Z,11.18
2023-11-19T17:15:59.376Z,11.16
2023-11-19T17:26:02.758Z,11.26
2023-11-19T17:36:08.203Z,10.99
2023-11-19T17:46:11.224Z,10.71
2023-11-19T17:56:15.764Z,10.88
2023-11-19T18:06:19.440Z,11.03
2023-11-19T18:16:24.782Z,11.00
2023-11-19T18:26:44.662Z,11.34
2023-11-19T18:36:49.373Z,11.43
2023-11-19T18:46:52.500Z,10.44
2023-11-19T18:56:58.267Z,10.20
2023-11-19T19:07:02.816Z,10.66
2023-11-19T19:17:09.204Z,10.81
2023-11-19T19:27:12.183Z,9.69
2023-11-19T19:37:16.526Z,9.93
2023-11-19T19:47:20.104Z,9.73
2023-11-19T19:57:24.485Z,9.92
2023-11-19T20:07:27.433Z,9.78
2023-11-19T20:17:31.824Z,9.78
2023-11-19T20:27:34.979Z,9.70
2023-11-19T20:37:39.358Z,9.72
2023-11-19T20:47:42.897Z,9.64
2023-11-19T20:57:47.296Z,9.77
2023-11-19T21:07:50.490Z,9.87
2023-11-19T21:17:54.908Z,9.94
2023-11-19T21:27:57.866Z,9.85
2023-11-19T21:38:02.109Z,9.99
2023-11-19T21:48:05.319Z,10.11
2023-11-19T21:58:09.504Z,10.09
2023-11-19T22:08:18.561Z,10.03
2023-11-19T22:23:36.130Z,9.91
2023-11-19T22:33:39.548Z,10.00
2023-11-19T22:43:44.726Z,9.97
2023-11-19T22:53:47.506Z,9.91
2023-11-19T23:03:51.709Z,9.89
2023-11-19T23:13:54.542Z,9.95
2023-11-19T23:23:58.789Z,9.91
2023-11-19T23:34:02.268Z,9.93
2023-11-19T23:44:07.021Z,10.09
2023-11-19T23:54:10.027Z,10.19
